createdAt,value
2023-03-30T00:00:23.401Z,10.20
2023-03-30T00:02:53.719Z,10.20
2023-03-30T00:05:23.698Z,10.20
2023-03-30T00:10:19.215Z,10.20
2023-03-30T00:12:47.950Z,10.20
2023-03-30T00:15:17.441Z,10.20
2023-03-30T00:17:45.434Z,10.20
2023-03-30T00:20:13.762Z,10.20
2023-03-30T00:22:42.634Z,10.20
2023-03-30T00:25:12.607Z,10.20
2023-03-30T00:27:40.692Z,10.20
2023-03-30T00:30:11.920Z,10.20
2023-03-30T00:32:38.900Z,10.20
2023-03-30T00:35:06.176Z,10.20
2023-03-30T00:37:33.439Z,10.20
2023-03-30T00:40:00.388Z,10.20
2023-03-30T00:42:27.320Z,10.20
2023-03-30T00:45:14.076Z,10.30
2023-03-30T00:47:57.101Z,10.20
2023-03-30T00:50:29.925Z,10.20
2023-03-30T00:52:58.946Z,10.20
2023-03-30T00:55:28.683Z,10.20
2023-03-30T00:57:56.464Z,10.20
2023-03-30T01:00:23.860Z,10.20
2023-03-30T01:02:59.359Z,10.20
2023-03-30T01:05:28.379Z,10.20
2023-03-30T01:07:57.989Z,10.20
2023-03-30T01:10:25.563Z,10.20
2023-03-30T01:12:52.637Z,10.20
2023-03-30T01:15:20.766Z,10.20
2023-03-30T01:18:04.557Z,10.20
2023-03-30T01:20:38.559Z,10.20
2023-03-30T01:23:29.716Z,10.20
2023-03-30T01:26:16.323Z,10.30
2023-03-30T01:28:49.982Z,10.30
2023-03-30T01:31:48.287Z,10.40
2023-03-30T01:34:37.096Z,10.50
2023-03-30T01:37:25.157Z,10.60
2023-03-30T01:39:57.374Z,10.60
2023-03-30T01:42:36.344Z,10.70
2023-03-30T01:45:28.429Z,10.80
2023-03-30T01:48:00.896Z,10.90
2023-03-30T01:50:42.506Z,10.90
2023-03-30T01:53:27.398Z,11.00
2023-03-30T01:56:09.483Z,11.00
2023-03-30T01:58:56.853Z,11.00
2023-03-30T02:01:25.917Z,11.10
2023-03-30T02:03:57.978Z,11.20
2023-03-30T02:06:54.402Z,11.20
2023-03-30T02:09:24.475Z,11.30
2023-03-30T02:11:53.903Z,11.30
2023-03-30T02:14:25.900Z,11.30
2023-03-30T02:17:00.857Z,11.40
2023-03-30T02:19:28.031Z,11.40
2023-03-30T02:21:55.086Z,11.40
2023-03-30T02:24:27.293Z,11.40
2023-03-30T02:26:55.097Z,11.50
2023-03-30T02:29:22.936Z,11.50
2023-03-30T02:31:53.286Z,11.50
2023-03-30T02:34:47.215Z,11.50
2023-03-30T02:37:26.121Z,11.60
2023-03-30T02:40:14.202Z,11.60
2023-03-30T02:43:12.262Z,11.70
2023-03-30T02:45:57.528Z,11.70
2023-03-30T02:48:32.458Z,11.70
2023-03-30T02:51:13.320Z,11.80
2023-03-30T02:53:59.794Z,11.80
2023-03-30T02:56:53.024Z,11.80
2023-03-30T02:59:31.048Z,11.80
2023-03-30T03:02:04.645Z,11.80
2023-03-30T03:04:34.183Z,11.80
2023-03-30T03:07:02.563Z,11.90
2023-03-30T03:09:29.890Z,11.80
2023-03-30T03:11:56.716Z,11.80
2023-03-30T03:14:26.515Z,11.70
2023-03-30T03:16:54.919Z,11.60
2023-03-30T03:19:21.946Z,11.60
2023-03-30T03:21:49.264Z,11.60
2023-03-30T03:24:17.687Z,11.50
2023-03-30T03:26:45.358Z,11.50
2023-03-30T03:29:12.256Z,11.40
2023-03-30T03:31:39.310Z,11.30
2023-03-30T03:34:06.925Z,11.30
2023-03-30T03:36:34.129Z,11.30
2023-03-30T03:39:00.920Z,11.20
2023-03-30T03:41:27.809Z,11.20
2023-03-30T03:43:54.733Z,11.30
2023-03-30T03:46:21.674Z,11.30
2023-03-30T03:48:48.533Z,11.40
2023-03-30T03:51:15.505Z,11.40
2023-03-30T03:53:42.724Z,11.50
2023-03-30T03:56:09.571Z,11.50
2023-03-30T03:58:36.490Z,11.60
2023-03-30T04:01:03.806Z,11.70
2023-03-30T04:03:31.145Z,11.70
2023-03-30T04:06:02.642Z,11.70
2023-03-30T04:08:30.480Z,11.80
2023-03-30T04:11:08.726Z,11.90
2023-03-30T04:13:38.769Z,12.00
2023-03-30T04:16:06.589Z,12.00
2023-03-30T04:18:34.615Z,12.00
2023-03-30T04:21:05.907Z,12.00
2023-03-30T04:23:34.049Z,12.00
2023-03-30T04:26:02.029Z,12.00
2023-03-30T04:28:30.086Z,12.00
2023-03-30T04:31:02.344Z,12.00
2023-03-30T04:33:30.616Z,12.00
2023-03-30T04:35:57.497Z,12.00
2023-03-30T04:38:24.327Z,12.00
2023-03-30T04:40:55.117Z,11.90
2023-03-30T04:43:24.552Z,11.80
2023-03-30T04:45:53.658Z,11.60
2023-03-30T04:48:22.016Z,11.40
2023-03-30T04:50:50.803Z,11.30
2023-03-30T04:53:18.773Z,11.20
2023-03-30T04:55:50.810Z,11.20
2023-03-30T04:58:18.193Z,11.20
2023-03-30T05:00:45.058Z,11.20
2023-03-30T05:03:12.296Z,11.20
2023-03-30T05:05:39.394Z,11.20
2023-03-30T05:08:06.306Z,11.20
2023-03-30T05:10:33.284Z,11.20
2023-03-30T05:13:00.220Z,11.20
2023-03-30T05:15:27.390Z,11.30
2023-03-30T05:17:54.324Z,11.30
2023-03-30T05:20:21.706Z,11.40
2023-03-30T05:22:49.516Z,11.40
2023-03-30T05:25:16.554Z,11.50
2023-03-30T05:27:43.401Z,11.50
2023-03-30T05:30:12.445Z,11.60
2023-03-30T05:32:39.372Z,11.60
2023-03-30T05:35:06.449Z,11.60
2023-03-30T05:37:33.356Z,11.70
2023-03-30T05:40:00.217Z,11.70
2023-03-30T05:42:27.213Z,11.70
2023-03-30T05:44:54.096Z,11.70
2023-03-30T05:47:22.165Z,11.80
2023-03-30T05:49:49.142Z,11.80
2023-03-30T05:52:16.263Z,11.80
2023-03-30T05:54:43.157Z,11.80
2023-03-30T05:57:10.287Z,11.80
2023-03-30T05:59:38.172Z,11.90
2023-03-30T06:02:08.358Z,11.90
2023-03-30T06:04:36.569Z,12.00
2023-03-30T06:07:03.384Z,12.10
2023-03-30T06:09:30.693Z,12.20
2023-03-30T06:11:58.617Z,12.20
2023-03-30T06:14:25.642Z,12.30
2023-03-30T06:16:55.881Z,12.30
2023-03-30T06:19:22.988Z,12.40
2023-03-30T06:21:50.297Z,12.40
2023-03-30T06:24:18.665Z,12.40
2023-03-30T06:26:45.518Z,12.50
2023-03-30T06:29:12.368Z,12.60
2023-03-30T06:31:39.271Z,12.70
2023-03-30T06:34:08.037Z,12.80
2023-03-30T06:36:45.171Z,12.90
2023-03-30T06:39:14.228Z,12.90
2023-03-30T06:41:42.490Z,12.90
2023-03-30T06:44:14.813Z,12.90
2023-03-30T06:46:42.484Z,12.90
2023-03-30T06:49:14.851Z,12.90
2023-03-30T06:51:42.012Z,12.90
2023-03-30T06:54:09.360Z,13.00
2023-03-30T06:56:36.336Z,12.90
2023-03-30T06:59:03.364Z,12.90
2023-03-30T07:01:30.254Z,12.90
2023-03-30T07:03:57.583Z,13.00
2023-03-30T07:06:24.753Z,13.00
2023-03-30T07:08:51.702Z,13.00
2023-03-30T07:11:18.594Z,13.10
2023-03-30T07:13:45.596Z,13.10
2023-03-30T07:16:12.512Z,13.10
2023-03-30T07:18:39.438Z,13.20
2023-03-30T07:21:06.857Z,13.20
2023-03-30T07:23:34.315Z,13.20
2023-03-30T07:26:01.192Z,13.20
2023-03-30T07:28:28.048Z,13.30
2023-03-30T07:30:54.956Z,13.20
2023-03-30T07:33:22.106Z,13.20
2023-03-30T07:35:50.103Z,13.10
2023-03-30T07:38:17.401Z,13.10
2023-03-30T07:40:44.301Z,13.00
2023-03-30T07:43:11.675Z,13.00
2023-03-30T07:45:38.502Z,13.00
2023-03-30T07:48:05.565Z,13.00
2023-03-30T07:50:32.445Z,12.90
2023-03-30T07:52:59.501Z,13.00
2023-03-30T07:55:28.850Z,13.00
2023-03-30T07:57:57.195Z,13.00
2023-03-30T08:00:25.087Z,13.00
2023-03-30T08:02:52.078Z,13.10
2023-03-30T08:05:19.140Z,13.20
2023-03-30T08:07:46.058Z,13.20
2023-03-30T08:10:13.488Z,13.20
2023-03-30T08:12:41.607Z,13.20
2023-03-30T08:15:09.189Z,13.30
2023-03-30T08:17:36.536Z,13.30
2023-03-30T08:20:06.453Z,13.40
2023-03-30T08:22:33.422Z,13.30
2023-03-30T08:25:00.530Z,13.30
2023-03-30T08:27:27.418Z,13.30
2023-03-30T08:29:54.429Z,13.20
2023-03-30T08:32:21.729Z,13.20
2023-03-30T08:34:48.813Z,13.20
2023-03-30T08:37:15.805Z,13.10
2023-03-30T08:39:45.485Z,13.00
2023-03-30T08:42:28.917Z,13.10
2023-03-30T08:44:57.795Z,13.10
2023-03-30T08:47:37.638Z,13.20
2023-03-30T08:50:28.618Z,13.30
2023-03-30T08:52:55.866Z,13.40
2023-03-30T08:55:46.177Z,13.60
2023-03-30T08:58:40.002Z,13.70
2023-03-30T09:01:26.586Z,13.70
2023-03-30T09:04:35.541Z,13.50
2023-03-30T09:07:34.169Z,13.30
2023-03-30T09:10:01.706Z,13.20
2023-03-30T09:12:48.431Z,13.20
2023-03-30T09:15:51.666Z,13.20
2023-03-30T09:18:31.632Z,13.40
2023-03-30T09:21:04.325Z,14.00
2023-03-30T09:23:33.056Z,15.20
2023-03-30T09:26:07.667Z,16.50
2023-03-30T09:28:49.992Z,17.30
2023-03-30T09:31:20.534Z,17.70
2023-03-30T09:34:07.143Z,18.40
2023-03-30T09:36:46.184Z,19.80
2023-03-30T09:39:25.727Z,21.20
2023-03-30T09:42:21.618Z,21.50
2023-03-30T09:45:16.094Z,21.00
2023-03-30T09:47:43.597Z,19.80
2023-03-30T09:50:23.100Z,18.70
2023-03-30T09:53:04.336Z,17.70
2023-03-30T09:55:32.517Z,16.80
2023-03-30T09:58:23.725Z,16.30
2023-03-30T10:01:04.556Z,15.90
2023-03-30T10:03:31.632Z,15.70
2023-03-30T10:06:24.607Z,15.60
2023-03-30T10:08:53.966Z,15.50
2023-03-30T10:11:30.917Z,15.70
2023-03-30T10:13:58.234Z,15.80
2023-03-30T10:16:27.665Z,15.70
2023-03-30T10:19:00.011Z,15.60
2023-03-30T10:21:31.790Z,15.40
2023-03-30T10:24:13.969Z,15.40
2023-03-30T10:26:44.894Z,15.90
2023-03-30T10:29:18.480Z,17.40
2023-03-30T10:31:48.326Z,19.10
2023-03-30T10:34:31.750Z,19.40
2023-03-30T10:36:58.764Z,19.10
2023-03-30T10:39:32.354Z,18.70
2023-03-30T10:42:05.540Z,18.20
2023-03-30T10:44:33.648Z,17.40
2023-03-30T10:47:26.818Z,16.80
2023-03-30T10:50:18.793Z,16.10
2023-03-30T10:53:17.182Z,15.60
2023-03-30T10:56:18.296Z,15.40
2023-03-30T10:58:59.853Z,15.30
2023-03-30T11:01:33.471Z,15.70
2023-03-30T11:04:20.340Z,16.10
2023-03-30T11:06:53.602Z,16.30
2023-03-30T11:09:28.227Z,16.40
2023-03-30T11:12:03.206Z,16.50
2023-03-30T11:14:49.247Z,16.80
2023-03-30T11:17:23.936Z,17.60
2023-03-30T11:19:57.989Z,18.20
2023-03-30T11:22:35.364Z,18.10
2023-03-30T11:25:06.770Z,17.90
2023-03-30T11:28:06.696Z,17.90
2023-03-30T11:30:35.281Z,18.90
2023-03-30T11:33:23.570Z,20.10
2023-03-30T11:36:18.741Z,20.30
2023-03-30T11:39:00.715Z,20.00
2023-03-30T11:42:03.862Z,19.50
2023-03-30T11:44:32.148Z,19.20
2023-03-30T11:47:10.528Z,20.10
2023-03-30T11:49:59.070Z,20.60
2023-03-30T11:52:46.397Z,20.30
2023-03-30T11:55:16.736Z,19.70
2023-03-30T11:58:31.880Z,19.10
2023-03-30T12:01:36.990Z,18.40
2023-03-30T12:04:31.092Z,17.80
2023-03-30T12:07:01.151Z,17.30
2023-03-30T12:09:56.423Z,16.70
2023-03-30T12:12:42.650Z,16.40
2023-03-30T12:15:22.497Z,17.20
2023-03-30T12:18:14.736Z,18.20
2023-03-30T12:20:53.906Z,18.60
2023-03-30T12:24:01.111Z,18.40
2023-03-30T12:26:34.245Z,18.30
2023-03-30T12:31:54.781Z,19.30
2023-03-30T12:34:28.535Z,20.20
2023-03-30T12:37:12.959Z,21.00
2023-03-30T12:39:49.246Z,20.90
2023-03-30T12:42:27.586Z,20.30
2023-03-30T12:44:54.469Z,19.60
2023-03-30T12:47:40.603Z,18.90
2023-03-30T12:50:31.809Z,18.20
2023-03-30T12:53:16.804Z,17.70
2023-03-30T12:55:57.789Z,17.20
2023-03-30T12:58:48.558Z,16.80
2023-03-30T13:01:36.925Z,16.90
2023-03-30T13:04:12.698Z,16.90
2023-03-30T13:06:53.444Z,16.70
2023-03-30T13:09:20.339Z,16.60
2023-03-30T13:12:20.354Z,16.30
2023-03-30T13:14:47.529Z,16.60
2023-03-30T13:17:20.734Z,17.20
2023-03-30T13:20:26.010Z,17.70
2023-03-30T13:23:10.853Z,17.80
2023-03-30T13:26:06.290Z,18.50
2023-03-30T13:28:55.021Z,19.40
2023-03-30T13:31:51.235Z,19.80
2023-03-30T13:34:30.265Z,19.50
2023-03-30T13:37:12.495Z,19.00
2023-03-30T13:39:52.664Z,18.40
2023-03-30T13:42:48.646Z,17.80
2023-03-30T13:45:34.144Z,17.50
2023-03-30T13:48:16.520Z,17.10
2023-03-30T13:50:51.766Z,16.90
2023-03-30T13:53:19.406Z,17.40
2023-03-30T13:55:49.210Z,18.00
2023-03-30T13:58:25.283Z,18.30
2023-03-30T14:01:00.370Z,18.60
2023-03-30T14:03:29.309Z,18.80
2023-03-30T14:06:20.955Z,18.80
2023-03-30T14:08:50.824Z,18.70
2023-03-30T14:11:24.515Z,18.90
2023-03-30T14:13:53.076Z,19.30
2023-03-30T14:16:23.484Z,19.60
2023-03-30T14:18:51.390Z,19.80
2023-03-30T14:21:21.971Z,20.00
2023-03-30T14:23:52.030Z,20.20
2023-03-30T14:26:27.466Z,20.30
2023-03-30T14:29:09.294Z,20.50
2023-03-30T14:31:40.115Z,20.30
2023-03-30T14:34:27.293Z,19.90
2023-03-30T14:37:06.895Z,19.50
2023-03-30T14:39:43.671Z,19.20
2023-03-30T14:42:16.128Z,19.00
2023-03-30T14:44:44.102Z,18.80
2023-03-30T14:47:15.902Z,18.60
2023-03-30T14:49:43.777Z,18.30
2023-03-30T14:52:20.136Z,18.00
2023-03-30T14:55:02.370Z,17.60
2023-03-30T14:57:34.835Z,17.20
2023-03-30T15:00:17.109Z,16.80
2023-03-30T15:02:45.314Z,16.50
2023-03-30T15:05:16.553Z,16.20
2023-03-30T15:07:48.062Z,16.00
2023-03-30T15:10:47.363Z,15.90
2023-03-30T15:13:41.693Z,15.80
2023-03-30T15:16:12.421Z,15.90
2023-03-30T15:18:39.583Z,16.00
2023-03-30T15:21:09.557Z,16.10
2023-03-30T15:23:40.880Z,16.30
2023-03-30T15:26:08.619Z,16.30
2023-03-30T15:28:51.647Z,16.20
2023-03-30T15:31:19.856Z,16.10
2023-03-30T15:33:55.519Z,16.00
2023-03-30T15:36:26.126Z,15.90
2023-03-30T15:38:55.359Z,15.90
2023-03-30T15:41:55.941Z,15.80
2023-03-30T15:44:25.422Z,15.70
2023-03-30T15:46:56.065Z,15.60
2023-03-30T15:49:29.367Z,15.50
2023-03-30T15:52:01.806Z,15.50
2023-03-30T15:54:42.589Z,15.40
2023-03-30T15:57:22.230Z,15.40
2023-03-30T16:00:00.713Z,15.40
2023-03-30T16:02:43.777Z,15.30
2023-03-30T16:05:21.039Z,15.30
2023-03-30T16:07:48.359Z,15.30
2023-03-30T16:10:18.184Z,15.20
2023-03-30T16:12:50.956Z,15.20
2023-03-30T16:15:22.612Z,15.20
2023-03-30T16:17:51.240Z,15.10
2023-03-30T16:20:27.580Z,15.10
2023-03-30T16:22:54.769Z,15.00
2023-03-30T16:25:34.114Z,14.90
2023-03-30T16:28:16.309Z,14.80
2023-03-30T16:30:46.838Z,14.70
2023-03-30T16:33:14.119Z,14.70
2023-03-30T16:35:41.061Z,14.60
2023-03-30T16:38:09.836Z,14.60
2023-03-30T16:40:43.157Z,14.60
2023-03-30T16:43:10.517Z,14.50
2023-03-30T16:45:37.733Z,14.50
2023-03-30T16:48:07.215Z,14.40
2023-03-30T16:50:39.698Z,14.30
2023-03-30T16:53:08.804Z,14.30
2023-03-30T16:55:36.562Z,14.20
2023-03-30T16:58:07.271Z,14.30
2023-03-30T17:00:56.324Z,14.20
2023-03-30T17:03:23.160Z,14.20
2023-03-30T17:05:49.973Z,14.20
2023-03-30T17:08:25.739Z,14.10
2023-03-30T17:10:57.225Z,14.10
2023-03-30T17:13:24.126Z,14.10
2023-03-30T17:15:51.062Z,14.00
2023-03-30T17:18:21.414Z,14.00
2023-03-30T17:20:54.248Z,13.90
2023-03-30T17:23:25.043Z,13.90
2023-03-30T17:25:53.976Z,13.80
2023-03-30T17:28:32.892Z,13.80
2023-03-30T17:31:02.648Z,13.80
2023-03-30T17:33:31.731Z,13.80
2023-03-30T17:36:14.490Z,13.70
2023-03-30T17:38:43.490Z,13.70
2023-03-30T17:41:15.436Z,13.70
2023-03-30T17:43:43.654Z,13.60
2023-03-30T17:46:15.781Z,13.60
2023-03-30T17:48:43.127Z,13.60
2023-03-30T17:51:10.091Z,13.50
2023-03-30T17:53:39.395Z,13.50
2023-03-30T17:56:06.397Z,13.40
2023-03-30T17:58:35.380Z,13.40
2023-03-30T18:01:04.881Z,13.40
2023-03-30T18:03:31.987Z,13.40
2023-03-30T18:06:00.752Z,13.30
2023-03-30T18:08:28.917Z,13.30
2023-03-30T18:11:01.911Z,13.30
2023-03-30T18:13:30.670Z,13.30
2023-03-30T18:15:59.961Z,13.20
2023-03-30T18:18:29.552Z,13.20
2023-03-30T18:21:04.437Z,13.20
2023-03-30T18:23:34.233Z,13.20
2023-03-30T18:26:02.182Z,13.10
2023-03-30T18:28:31.328Z,13.10
2023-03-30T18:30:58.593Z,13.10
2023-03-30T18:33:27.163Z,13.10
2023-03-30T18:36:04.812Z,13.10
2023-03-30T18:38:34.149Z,13.00
2023-03-30T18:41:01.539Z,13.00
2023-03-30T18:43:28.885Z,13.00
2023-03-30T18:46:00.004Z,12.90
2023-03-30T18:48:28.804Z,12.80
2023-03-30T18:50:56.517Z,12.80
2023-03-30T18:53:28.449Z,12.70
2023-03-30T18:55:58.601Z,12.60
2023-03-30T18:58:31.013Z,12.50
2023-03-30T19:00:58.031Z,12.40
2023-03-30T19:03:28.519Z,12.30
2023-03-30T19:05:55.972Z,12.20
2023-03-30T19:08:25.033Z,12.20
2023-03-30T19:10:57.212Z,12.10
2023-03-30T19:13:26.380Z,12.10
2023-03-30T19:15:53.864Z,12.10
2023-03-30T19:18:21.414Z,12.10
2023-03-30T19:20:51.501Z,12.10
2023-03-30T19:23:22.281Z,12.10
2023-03-30T19:25:49.229Z,12.10
2023-03-30T19:28:19.338Z,12.20
2023-03-30T19:30:46.693Z,12.20
2023-03-30T19:33:16.508Z,12.20
2023-03-30T19:35:45.322Z,12.20
2023-03-30T19:38:13.602Z,12.20
2023-03-30T19:40:40.959Z,12.10
2023-03-30T19:43:08.498Z,12.00
2023-03-30T19:45:36.319Z,11.90
2023-03-30T19:48:03.442Z,11.90
2023-03-30T19:50:30.716Z,11.80
2023-03-30T19:52:58.008Z,11.70
2023-03-30T19:55:26.218Z,11.60
2023-03-30T19:57:53.399Z,11.60
2023-03-30T20:00:21.221Z,11.50
2023-03-30T20:02:51.838Z,11.40
2023-03-30T20:05:20.966Z,11.40
2023-03-30T20:07:48.878Z,11.40
2023-03-30T20:10:19.537Z,11.30
2023-03-30T20:12:47.466Z,11.20
2023-03-30T20:15:14.803Z,11.20
2023-03-30T20:17:42.550Z,11.20
2023-03-30T20:20:14.257Z,11.10
2023-03-30T20:22:43.784Z,11.10
2023-03-30T20:25:13.741Z,11.00
2023-03-30T20:27:40.926Z,11.00
2023-03-30T20:30:08.457Z,11.00
2023-03-30T20:32:35.560Z,11.00
2023-03-30T20:35:02.726Z,11.00
2023-03-30T20:37:32.060Z,11.00
2023-03-30T20:40:04.058Z,11.00
2023-03-30T20:42:34.230Z,10.90
2023-03-30T20:45:01.471Z,10.90
2023-03-30T20:47:30.967Z,10.90
2023-03-30T20:49:59.073Z,10.90
2023-03-30T20:52:29.104Z,10.80
2023-03-30T20:54:56.446Z,10.80
2023-03-30T20:57:24.365Z,10.80
2023-03-30T20:59:53.470Z,10.80
2023-03-30T21:02:20.936Z,10.80
2023-03-30T21:04:53.053Z,10.80
2023-03-30T21:07:20.180Z,10.80
2023-03-30T21:09:47.262Z,10.70
2023-03-30T21:12:14.086Z,10.70
2023-03-30T21:14:40.990Z,10.70
2023-03-30T21:17:08.282Z,10.70
2023-03-30T21:19:35.434Z,10.70
2023-03-30T21:22:02.470Z,10.70
2023-03-30T21:24:29.447Z,10.70
2023-03-30T21:26:56.467Z,10.60
2023-03-30T21:29:23.523Z,10.60
2023-03-30T21:31:50.561Z,10.50
2023-03-30T21:34:18.773Z,10.40
2023-03-30T21:36:46.192Z,10.40
2023-03-30T21:39:13.218Z,10.40
2023-03-30T21:41:40.068Z,10.40
2023-03-30T21:44:07.632Z,10.40
2023-03-30T21:46:34.577Z,10.40
2023-03-30T21:49:01.523Z,10.40
2023-03-30T21:51:31.250Z,10.50
2023-03-30T21:53:58.766Z,10.50
2023-03-30T21:56:28.914Z,10.60
2023-03-30T21:58:56.367Z,10.60
2023-03-30T22:01:24.269Z,10.70
2023-03-30T22:03:52.535Z,10.70
2023-03-30T22:06:19.530Z,10.80
2023-03-30T22:08:47.016Z,10.90
2023-03-30T22:11:16.022Z,10.90
2023-03-30T22:13:45.988Z,11.00
2023-03-30T22:16:28.738Z,11.10
2023-03-30T22:18:55.888Z,11.10
2023-03-30T22:21:24.988Z,11.20
2023-03-30T22:23:54.658Z,11.20
2023-03-30T22:26:23.547Z,11.20
2023-03-30T22:28:50.448Z,11.30
2023-03-30T22:31:17.360Z,11.30
2023-03-30T22:33:44.483Z,11.30
2023-03-30T22:36:17.235Z,11.30
2023-03-30T22:38:44.426Z,11.30
2023-03-30T22:41:11.445Z,11.30
2023-03-30T22:43:38.678Z,11.40
2023-03-30T22:46:06.766Z,11.40
2023-03-30T22:48:35.608Z,11.40
2023-03-30T22:51:08.419Z,11.40
2023-03-30T22:53:35.774Z,11.30
2023-03-30T22:56:02.837Z,11.20
2023-03-30T22:58:29.892Z,11.20
2023-03-30T23:01:10.404Z,11.10
2023-03-30T23:03:37.879Z,11.10
2023-03-30T23:06:05.097Z,11.00
2023-03-30T23:08:32.350Z,11.00
2023-03-30T23:11:04.939Z,11.00
2023-03-30T23:13:38.211Z,11.00
2023-03-30T23:16:08.890Z,11.00
2023-03-30T23:18:36.150Z,11.10
2023-03-30T23:21:06.713Z,11.10
2023-03-30T23:23:35.530Z,11.10
2023-03-30T23:26:08.444Z,11.20
2023-03-30T23:28:38.291Z,11.20
2023-03-30T23:31:10.744Z,11.20
2023-03-30T23:33:37.845Z,11.20
2023-03-30T23:36:06.465Z,11.30
2023-03-30T23:38:33.514Z,11.30
2023-03-30T23:41:00.818Z,11.30
2023-03-30T23:43:28.074Z,11.30
2023-03-30T23:45:54.897Z,11.30
2023-03-30T23:48:22.670Z,11.30
2023-03-30T23:50:49.570Z,11.30
2023-03-30T23:53:16.555Z,11.20
2023-03-30T23:55:43.332Z,11.20
2023-03-30T23:58:10.157Z,11.20
